Time;durP1;ratioP1;P1;durP2;ratioP2;P2;SDS_P1;SDS_P2;PMS_P1;PMS_P2;Temp;Humidity;BMP_temperature;BMP_pressure;BME280_temperature;BME280_humidity;BME280_pressure;Samples;Min_cycle;Max_cycle;Signal;HPM_P1;HPM_P2
2024/01/10 00:00:40;;;;;;;4.95;3.03;;;;;;;17.19;19.45;102870.84;16108019;19;129978;-57
2024/01/10 00:06:03;;;;;;;4.38;2.78;;;;;;;17.16;19.19;102863.81;16117195;19;129768;-59
2024/01/10 00:11:25;;;;;;;4.90;2.83;;;;;;;17.12;19.22;102868.00;16121097;19;129275;-58
2024/01/10 00:16:48;;;;;;;4.75;3.15;;;;;;;17.07;19.33;102859.41;16106584;19;129097;-58
2024/01/10 00:22:10;;;;;;;3.58;2.72;;;;;;;17.02;19.29;102860.00;16105162;19;129757;-58
2024/01/10 00:27:32;;;;;;;5.80;3.08;;;;;;;16.98;19.27;102853.09;16104776;19;133615;-59
2024/01/10 00:32:54;;;;;;;4.07;2.60;;;;;;;16.92;19.30;102832.59;16113494;19;131041;-58
2024/01/10 00:38:16;;;;;;;3.80;2.60;;;;;;;16.89;19.22;102832.13;16123140;19;130258;-58
2024/01/10 00:43:38;;;;;;;4.13;2.88;;;;;;;16.85;19.60;102822.47;16121576;19;130274;-58
2024/01/10 00:49:00;;;;;;;5.82;2.95;;;;;;;16.82;19.55;102826.47;16120100;19;131187;-56
2024/01/10 00:54:22;;;;;;;3.30;2.75;;;;;;;16.77;19.50;102823.41;16119364;19;129464;-58
2024/01/10 00:59:44;;;;;;;4.18;3.10;;;;;;;16.75;19.56;102825.50;16121257;19;129851;-59
2024/01/10 01:05:09;;;;;;;5.07;2.85;;;;;;;16.71;19.51;102818.66;16119747;19;129121;-58
2024/01/10 01:10:31;;;;;;;3.97;2.85;;;;;;;16.67;19.42;102826.47;16117307;19;130476;-58
2024/01/10 01:15:57;;;;;;;;;;;;;;;16.62;19.65;102832.47;16119561;19;134958;-59
2024/01/10 01:21:19;;;;;;;4.38;3.15;;;;;;;16.61;19.68;102828.03;16122738;19;131137;-58
2024/01/10 01:26:41;;;;;;;4.80;3.15;;;;;;;16.57;19.59;102840.50;16118733;19;129759;-58
2024/01/10 01:32:03;;;;;;;3.92;2.97;;;;;;;16.55;19.53;102828.75;16117079;19;129531;-59
2024/01/10 01:37:25;;;;;;;3.58;2.78;;;;;;;16.52;19.67;102833.81;16119413;19;129638;-59
2024/01/10 01:42:47;;;;;;;5.10;3.25;;;;;;;16.50;19.55;102838.66;16113951;19;130035;-58
2024/01/10 01:48:10;;;;;;;5.15;2.95;;;;;;;16.47;19.98;102823.31;16117462;19;130710;-59
2024/01/10 01:53:34;;;;;;;4.97;3.00;;;;;;;16.45;19.73;102825.41;16114142;19;131228;-59
2024/01/10 01:58:56;;;;;;;4.30;2.75;;;;;;;16.45;19.75;102825.41;16114277;19;130199;-57
2024/01/10 02:04:19;;;;;;;6.03;2.83;;;;;;;16.42;20.13;102825.75;16110533;19;131024;-57
2024/01/10 02:09:42;;;;;;;8.00;3.10;;;;;;;16.39;19.80;102827.00;16112434;19;131066;-58
2024/01/10 02:15:05;;;;;;;4.30;2.90;;;;;;;16.36;19.65;102824.59;16113075;19;129441;-59
2024/01/10 02:20:27;;;;;;;5.50;3.50;;;;;;;16.36;19.97;102826.50;16114055;19;129764;-58
2024/01/10 02:25:49;;;;;;;4.35;2.88;;;;;;;16.32;20.04;102826.00;16114325;19;130993;-58
2024/01/10 02:31:11;;;;;;;6.15;3.30;;;;;;;16.30;19.82;102822.59;16105912;19;129352;-66
2024/01/10 02:36:33;;;;;;;4.03;3.03;;;;;;;16.29;20.25;102816.19;16101003;19;129785;-59
2024/01/10 02:41:55;;;;;;;4.22;2.70;;;;;;;16.27;20.18;102806.38;16107742;19;129537;-59
2024/01/10 02:47:17;;;;;;;3.95;3.10;;;;;;;16.24;20.07;102806.72;16111862;19;135303;-62
2024/01/10 02:52:39;;;;;;;5.63;3.05;;;;;;;16.21;20.33;102815.38;16108913;19;130092;-67
2024/01/10 02:58:02;;;;;;;5.03;3.10;;;;;;;16.19;20.31;102810.06;16109828;19;131486;-65
2024/01/10 03:03:23;;;;;;;4.70;3.00;;;;;;;16.18;20.09;102801.97;16109197;19;129603;-65
2024/01/10 03:08:45;;;;;;;4.15;2.72;;;;;;;16.15;20.36;102786.59;16114173;19;130565;-60
2024/01/10 03:14:09;;;;;;;3.90;2.60;;;;;;;16.13;20.14;102791.44;16109193;19;130481;-62
2024/01/10 03:19:31;;;;;;;3.80;2.83;;;;;;;16.11;20.09;102785.28;16108058;19;132212;-61
2024/01/10 03:24:53;;;;;;;6.07;3.00;;;;;;;16.09;20.37;102781.81;16108149;19;129422;-64
2024/01/10 03:30:18;;;;;;;5.47;2.88;;;;;;;16.08;20.11;102769.06;16107243;19;129677;-65
2024/01/10 03:35:40;;;;;;;3.93;2.70;;;;;;;16.05;20.31;102769.44;16109275;19;130868;-67
2024/01/10 03:41:02;;;;;;;3.63;2.70;;;;;;;16.03;20.02;102780.66;16111059;19;130550;-61
2024/01/10 03:46:24;;;;;;;3.88;2.97;;;;;;;16.01;20.28;102769.78;16104314;19;130459;-64
2024/01/10 03:51:46;;;;;;;5.05;3.25;;;;;;;15.99;20.22;102760.84;16108918;19;130856;-61
2024/01/10 03:57:08;;;;;;;3.85;3.03;;;;;;;15.98;19.92;102758.25;16105179;19;129343;-60
2024/01/10 04:02:30;;;;;;;5.93;3.35;;;;;;;15.97;20.12;102751.00;16101227;19;130910;-62
2024/01/10 04:07:52;;;;;;;3.63;2.85;;;;;;;15.95;20.14;102759.50;16112228;19;129394;-69
2024/01/10 04:13:14;;;;;;;4.57;3.03;;;;;;;15.94;20.20;102752.25;16121591;19;129534;-69
2024/01/10 04:18:36;;;;;;;3.40;2.78;;;;;;;15.92;20.38;102746.03;16123117;19;131463;-60
2024/01/10 04:23:58;;;;;;;3.97;3.10;;;;;;;15.91;20.19;102752.59;16117450;19;129370;-65
2024/01/10 04:29:20;;;;;;;4.43;3.00;;;;;;;15.89;20.43;102746.41;16122991;19;129842;-63
2024/01/10 04:34:42;;;;;;;4.38;2.90;;;;;;;15.87;20.08;102754.03;16118121;19;129675;-67
2024/01/10 04:40:06;;;;;;;3.70;2.85;;;;;;;15.84;20.10;102740.59;16120777;19;129442;-65
2024/01/10 04:45:30;;;;;;;4.20;2.45;;;;;;;15.82;20.30;102740.75;16119132;19;130590;-65
2024/01/10 04:50:51;;;;;;;4.70;2.95;;;;;;;15.81;20.00;102741.81;16120747;19;129496;-67
2024/01/10 04:56:13;;;;;;;3.35;2.70;;;;;;;15.80;20.37;102740.09;16117328;19;130486;-62
2024/01/10 05:01:36;;;;;;;4.60;2.70;;;;;;;15.79;20.11;102743.03;16118470;19;129533;-58
2024/01/10 05:06:59;;;;;;;4.78;2.83;;;;;;;15.76;20.00;102754.41;16111164;19;130806;-57
2024/01/10 05:12:21;;;;;;;5.70;2.83;;;;;;;15.77;20.41;102753.38;16117061;19;130194;-56
2024/01/10 05:17:43;;;;;;;4.53;2.90;;;;;;;15.75;20.28;102747.22;16113257;19;129563;-66
2024/01/10 05:23:05;;;;;;;3.92;2.35;;;;;;;15.72;19.99;102739.25;16115692;19;129546;-61
2024/01/10 05:28:27;;;;;;;4.40;3.03;;;;;;;15.69;20.23;102738.56;16115002;19;129181;-58
2024/01/10 05:33:48;;;;;;;3.85;2.38;;;;;;;15.68;20.20;102742.38;16111238;19;130530;-57
2024/01/10 05:39:11;;;;;;;6.18;2.80;;;;;;;15.66;20.20;102741.69;16114338;19;129635;-56
2024/01/10 05:44:33;;;;;;;4.82;3.25;;;;;;;15.64;20.49;102741.00;16116613;19;130748;-58
2024/01/10 05:49:55;;;;;;;4.07;2.58;;;;;;;15.64;20.08;102734.66;16115618;19;129696;-58
2024/01/10 05:55:17;;;;;;;4.25;3.00;;;;;;;15.65;20.20;102730.84;16118124;19;133466;-57
2024/01/10 06:00:39;;;;;;;3.22;2.53;;;;;;;15.70;20.40;102725.63;16115726;19;130266;-57
2024/01/10 06:06:01;;;;;;;4.03;2.90;;;;;;;15.84;20.25;102726.78;16111616;19;129926;-58
2024/01/10 06:11:23;;;;;;;5.50;2.78;;;;;;;16.04;20.04;102734.56;16110309;19;131344;-57
2024/01/10 06:16:45;;;;;;;4.00;2.78;;;;;;;16.22;20.41;102737.88;16116289;19;130930;-58
2024/01/10 06:22:07;;;;;;;4.00;2.85;;;;;;;16.35;20.08;102733.63;16113017;19;130506;-57
2024/01/10 06:27:30;;;;;;;3.50;2.72;;;;;;;16.43;20.15;102730.78;16111888;19;130515;-58
2024/01/10 06:32:55;;;;;;;4.07;2.70;;;;;;;16.46;19.84;102733.19;16112596;19;131450;-59
2024/01/10 06:38:17;;;;;;;5.37;3.00;;;;;;;16.48;20.13;102722.81;16113841;19;129415;-58
2024/01/10 06:43:39;;;;;;;7.85;2.92;;;;;;;16.47;19.78;102726.63;16110959;19;129451;-59
2024/01/10 06:49:01;;;;;;;6.30;3.10;;;;;;;16.47;19.92;102734.91;16109959;19;130355;-58
2024/01/10 06:54:23;;;;;;;3.33;2.83;;;;;;;16.45;20.01;102728.72;16111797;19;130092;-59
2024/01/10 06:59:45;;;;;;;4.53;2.95;;;;;;;16.41;20.30;102731.00;16112992;19;129401;-58
2024/01/10 07:05:08;;;;;;;5.18;2.78;;;;;;;16.38;19.99;102716.66;16106517;19;129894;-57
2024/01/10 07:10:31;;;;;;;5.00;3.00;;;;;;;16.31;20.34;102720.19;16104908;19;129336;-60
2024/01/10 07:15:53;;;;;;;5.78;3.03;;;;;;;16.28;20.04;102716.94;16108216;19;129343;-59
2024/01/10 07:21:15;;;;;;;7.03;2.65;;;;;;;16.23;20.35;102727.69;16109019;19;129668;-59
2024/01/10 07:26:37;;;;;;;7.47;2.85;;;;;;;16.18;20.05;102733.78;16103966;19;130553;-60
2024/01/10 07:31:59;;;;;;;3.25;2.60;;;;;;;16.14;20.15;102740.69;16106463;19;130787;-60
2024/01/10 07:37:22;;;;;;;4.32;2.80;;;;;;;16.09;20.63;102734.88;16106472;19;130445;-60
2024/01/10 07:42:45;;;;;;;7.07;2.70;;;;;;;16.06;20.45;102749.06;16115907;19;129572;-60
2024/01/10 07:48:07;;;;;;;3.35;2.45;;;;;;;16.01;20.39;102757.91;16121624;19;130522;-59
2024/01/10 07:53:29;;;;;;;4.75;3.03;;;;;;;15.97;20.57;102756.53;16123354;19;130483;-60
2024/01/10 07:58:51;;;;;;;4.38;2.58;;;;;;;15.91;20.23;102758.13;16122998;19;130470;-60
2024/01/10 08:04:13;;;;;;;4.00;2.47;;;;;;;15.86;20.36;102763.34;16123582;19;132647;-60
2024/01/10 08:09:37;;;;;;;4.30;2.60;;;;;;;15.82;20.41;102767.50;16117333;19;130482;-60
2024/01/10 08:14:59;;;;;;;4.97;2.35;;;;;;;15.78;20.60;102763.38;16120260;19;129379;-60
2024/01/10 08:20:21;;;;;;;4.05;3.00;;;;;;;15.76;20.74;102762.69;16121524;19;129707;-60
2024/01/10 08:25:44;;;;;;;3.53;2.60;;;;;;;15.73;20.47;102763.06;16119125;19;129620;-60
2024/01/10 08:31:07;;;;;;;5.20;2.80;;;;;;;15.70;20.70;102754.09;16117757;19;129895;-62
2024/01/10 08:36:29;;;;;;;4.78;3.17;;;;;;;15.67;20.86;102757.22;16120482;19;130968;-60
2024/01/10 08:41:52;;;;;;;4.28;2.97;;;;;;;15.65;20.71;102758.44;16132803;19;130022;-59
2024/01/10 08:47:14;;;;;;;4.97;3.00;;;;;;;15.63;20.68;102755.00;16135667;19;129340;-60
2024/01/10 08:52:39;;;;;;;3.75;2.75;;;;;;;15.62;21.09;102758.78;16134970;19;129532;-60
2024/01/10 08:58:01;;;;;;;3.20;2.47;;;;;;;15.72;21.04;102758.56;16131173;19;130565;-60
2024/01/10 09:03:23;;;;;;;4.75;2.90;;;;;;;15.88;20.63;102775.03;16134233;19;129341;-60
2024/01/10 09:08:45;;;;;;;3.88;2.65;;;;;;;16.03;20.79;102772.38;16130909;19;129639;-60
2024/01/10 09:14:08;;;;;;;4.75;3.03;;;;;;;16.14;20.54;102776.59;16132521;19;129622;-60
2024/01/10 09:19:31;;;;;;;6.15;3.35;;;;;;;16.23;20.67;102766.34;16122870;19;129400;-61
2024/01/10 09:24:53;;;;;;;4.97;3.15;;;;;;;16.26;20.85;102768.75;16124312;19;131014;-60
2024/01/10 09:30:16;;;;;;;5.35;3.03;;;;;;;16.26;20.94;102768.75;16120642;19;130282;-60
2024/01/10 09:35:39;;;;;;;3.85;2.72;;;;;;;16.24;20.56;102763.44;16117258;19;130240;-59
2024/01/10 09:41:03;;;;;;;4.28;2.83;;;;;;;16.24;20.70;102770.84;16115768;19;129530;-60
2024/01/10 09:46:29;;;;;;;4.22;2.80;;;;;;;16.22;20.46;102768.25;16114913;19;130865;-60
2024/01/10 09:51:58;;;;;;;6.03;3.13;;;;;;;16.20;20.27;102778.63;16113438;19;130475;-60
2024/01/10 09:57:20;;;;;;;5.32;3.13;;;;;;;16.14;20.65;102771.06;16115202;19;131469;-60
2024/01/10 10:02:45;;;;;;;4.90;3.38;;;;;;;16.10;20.58;102767.81;16115004;19;129410;-63
2024/01/10 10:08:09;;;;;;;4.60;3.40;;;;;;;16.06;20.77;102771.16;16110020;19;133974;-63
2024/01/10 10:13:31;;;;;;;4.90;2.97;;;;;;;16.01;20.60;102764.25;16104712;19;129576;-66
2024/01/10 10:18:57;;;;;;;5.32;3.33;;;;;;;15.96;20.47;102776.91;16113293;19;129368;-63
2024/01/10 10:24:21;;;;;;;4.38;3.53;;;;;;;15.89;20.42;102776.75;16112638;19;129764;-63
2024/01/10 10:29:46;;;;;;;4.93;3.40;;;;;;;15.83;20.55;102766.47;16108166;19;130289;-61
2024/01/10 10:35:10;;;;;;;4.68;3.70;;;;;;;15.80;20.35;102767.72;16112952;19;129660;-61
2024/01/10 10:40:52;;;;;;;7.50;4.03;;;;;;;15.84;20.66;102774.56;16110721;19;130647;-61
2024/01/10 10:46:14;;;;;;;6.40;3.80;;;;;;;15.94;20.41;102756.94;16114553;19;130317;-60
2024/01/10 10:51:37;;;;;;;5.97;3.88;;;;;;;16.11;20.40;102757.66;16114019;19;130496;-60
2024/01/10 10:57:01;;;;;;;4.70;3.30;;;;;;;16.28;20.19;102761.16;16111565;19;129790;-61
2024/01/10 11:02:24;;;;;;;6.63;4.13;;;;;;;16.43;20.00;102750.13;16112617;19;129844;-61
2024/01/10 11:07:52;;;;;;;5.68;3.70;;;;;;;16.54;20.39;102741.38;16109153;19;130216;-60
2024/01/10 11:13:20;;;;;;;;;;;;;;;16.57;19.96;102749.31;16117373;19;134581;-60
2024/01/10 11:19:04;;;;;;;5.20;3.40;;;;;;;16.62;20.26;102735.75;16108267;19;131098;-60
2024/01/10 11:24:26;;;;;;;6.32;3.85;;;;;;;16.58;20.29;102736.34;16110056;19;129909;-59
2024/01/10 11:29:48;;;;;;;6.43;3.97;;;;;;;16.57;19.94;102731.84;16107763;19;129998;-60
2024/01/10 11:35:20;;;;;;;6.28;4.07;;;;;;;16.54;19.85;102730.34;16109603;19;129469;-60
2024/01/10 11:40:48;;;;;;;5.07;3.58;;;;;;;16.48;19.97;102733.88;16109690;19;129266;-60
2024/01/10 11:46:12;;;;;;;5.78;3.60;;;;;;;16.46;20.41;102722.13;16109070;19;129519;-60
2024/01/10 11:51:35;;;;;;;7.10;4.07;;;;;;;16.52;20.25;102704.78;16108812;19;131169;-59
2024/01/10 11:57:00;;;;;;;8.45;4.13;;;;;;;16.60;20.37;102699.19;16107563;19;129764;-61
2024/01/10 12:02:25;;;;;;;5.65;3.75;;;;;;;16.72;20.00;102704.28;16106487;19;129239;-60
2024/01/10 12:07:51;;;;;;;5.95;4.13;;;;;;;16.79;20.10;102702.47;16105129;19;129872;-60
2024/01/10 12:13:14;;;;;;;6.47;3.83;;;;;;;16.83;20.38;102694.66;16103624;19;131132;-60
2024/01/10 12:18:36;;;;;;;5.22;3.83;;;;;;;16.85;20.18;102692.56;16108040;19;130157;-60
2024/01/10 12:23:58;;;;;;;6.28;4.00;;;;;;;16.83;20.38;102687.22;16102879;19;130286;-60
2024/01/10 12:29:20;;;;;;;6.82;4.47;;;;;;;16.79;20.60;102682.28;16111844;19;129481;-61
2024/01/10 12:34:42;;;;;;;5.47;3.88;;;;;;;16.73;20.36;102686.66;16122517;19;130174;-60
2024/01/10 12:40:07;;;;;;;6.05;3.75;;;;;;;16.67;20.67;102674.47;16119037;19;129492;-60
2024/01/10 12:45:32;;;;;;;6.22;4.20;;;;;;;16.64;20.29;102674.81;16121451;19;129622;-59
2024/01/10 12:50:54;;;;;;;7.93;4.43;;;;;;;16.59;20.39;102682.78;16120486;19;129781;-59
2024/01/10 12:56:16;;;;;;;7.22;4.30;;;;;;;16.53;20.64;102667.84;16123129;19;130114;-59
2024/01/10 13:01:38;;;;;;;6.30;4.43;;;;;;;16.46;20.35;102661.34;16118293;19;130245;-59
2024/01/10 13:07:01;;;;;;;5.38;3.78;;;;;;;16.40;20.35;102659.34;16117214;19;129454;-59
2024/01/10 13:12:23;;;;;;;5.47;4.07;;;;;;;16.29;20.69;102660.69;16115169;19;131046;-59
2024/01/10 13:17:45;;;;;;;6.07;4.25;;;;;;;16.20;20.58;102651.59;16117638;19;130768;-60
2024/01/10 13:23:07;;;;;;;7.10;4.68;;;;;;;16.13;20.80;102656.16;16117110;19;129454;-62
2024/01/10 13:28:30;;;;;;;6.05;4.53;;;;;;;16.11;20.55;102661.03;16118634;19;129876;-58
2024/01/10 13:33:52;;;;;;;6.60;4.30;;;;;;;16.05;20.39;102657.09;16119425;19;130640;-60
2024/01/10 13:39:16;;;;;;;6.43;4.40;;;;;;;16.01;20.42;102653.84;16115629;19;131137;-60
2024/01/10 13:44:41;;;;;;;7.70;5.03;;;;;;;15.99;20.41;102650.44;16114848;19;129621;-60
2024/01/10 13:50:05;;;;;;;6.10;4.13;;;;;;;15.97;20.62;102647.00;16114572;19;129636;-60
2024/01/10 13:55:27;;;;;;;7.30;5.13;;;;;;;15.92;20.44;102649.44;16116071;19;131272;-60
2024/01/10 14:00:50;;;;;;;8.45;4.72;;;;;;;15.90;20.46;102650.69;16114530;19;129631;-60
2024/01/10 14:06:12;;;;;;;7.88;4.82;;;;;;;15.86;20.72;102664.00;16113815;19;130612;-61
2024/01/10 14:11:34;;;;;;;6.95;4.57;;;;;;;15.85;20.59;102663.13;16110461;19;130523;-60
2024/01/10 14:16:56;;;;;;;9.65;4.97;;;;;;;15.90;20.86;102668.09;16109744;19;129645;-60
2024/01/10 14:22:18;;;;;;;7.90;5.25;;;;;;;16.01;21.08;102670.41;16109313;19;129453;-60
2024/01/10 14:27:52;;;;;;;8.35;4.70;;;;;;;16.15;20.53;102681.66;16110481;19;129327;-60
2024/01/10 14:33:14;;;;;;;8.90;4.88;;;;;;;16.25;20.67;102665.69;16116069;19;130154;-60
2024/01/10 14:38:38;;;;;;;7.70;4.82;;;;;;;16.35;20.48;102676.47;16111742;19;130171;-60
2024/01/10 14:44:01;;;;;;;8.43;5.47;;;;;;;16.37;20.47;102673.53;16111491;19;129719;-60
2024/01/10 14:49:23;;;;;;;9.05;5.10;;;;;;;16.36;20.62;102678.19;16110155;19;130751;-60
2024/01/10 14:54:45;;;;;;;6.43;4.47;;;;;;;16.36;20.86;102677.34;16110096;19;129890;-60
2024/01/10 15:00:07;;;;;;;8.18;4.85;;;;;;;16.34;20.73;102680.28;16109623;19;129706;-60
2024/01/10 15:05:29;;;;;;;6.90;4.65;;;;;;;16.32;20.95;102682.38;16105935;19;131615;-60
2024/01/10 15:10:51;;;;;;;8.18;5.20;;;;;;;16.29;20.61;102691.91;16106788;19;129265;-60
2024/01/10 15:16:13;;;;;;;6.63;5.07;;;;;;;16.27;20.77;102696.75;16107904;19;129309;-60
2024/01/10 15:21:35;;;;;;;7.50;5.07;;;;;;;16.23;20.91;102700.06;16108406;19;129477;-60
2024/01/10 15:27:00;;;;;;;9.35;4.75;;;;;;;16.19;20.85;102715.28;16109820;19;135581;-60
2024/01/10 15:32:24;;;;;;;9.10;4.90;;;;;;;16.14;20.53;102713.09;16106724;19;129471;-60
2024/01/10 15:37:46;;;;;;;8.40;5.28;;;;;;;16.05;20.32;102719.72;16106848;19;129446;-60
2024/01/10 15:43:09;;;;;;;8.63;5.43;;;;;;;16.00;20.62;102725.81;16108700;19;131015;-60
2024/01/10 15:48:30;;;;;;;7.47;5.20;;;;;;;15.96;20.55;102732.72;16105443;19;129513;-60
2024/01/10 15:53:56;;;;;;;8.48;5.00;;;;;;;15.99;20.50;102726.84;16108558;19;131193;-60
2024/01/10 15:59:18;;;;;;;7.33;5.33;;;;;;;16.18;20.49;102735.69;16106733;19;130756;-60
2024/01/10 16:04:40;;;;;;;8.52;5.07;;;;;;;16.47;20.37;102740.44;16120153;19;129532;-62
2024/01/10 16:10:03;;;;;;;9.07;5.78;;;;;;;16.87;20.39;102752.13;16118582;19;130399;-60
2024/01/10 16:15:25;;;;;;;7.35;4.75;;;;;;;17.40;20.20;102762.22;16119330;19;131104;-60
2024/01/10 16:20:47;;;;;;;8.55;5.00;;;;;;;17.88;19.65;102758.13;16119835;19;130137;-60
2024/01/10 16:26:10;;;;;;;7.75;5.03;;;;;;;18.34;19.18;102752.16;16121429;19;130470;-60
2024/01/10 16:31:32;;;;;;;6.82;4.60;;;;;;;18.68;19.04;102753.34;16120819;19;134003;-60
2024/01/10 16:36:54;;;;;;;10.50;4.90;;;;;;;18.85;19.09;102755.78;16121178;19;129512;-60
2024/01/10 16:42:16;;;;;;;8.10;4.80;;;;;;;18.84;18.90;102751.28;16121178;19;129266;-60
2024/01/10 16:47:38;;;;;;;9.13;5.32;;;;;;;18.74;18.97;102746.97;16119137;19;130319;-60
2024/01/10 16:53:01;;;;;;;8.52;4.88;;;;;;;18.64;19.26;102738.16;16112453;19;130416;-60
2024/01/10 16:58:23;;;;;;;7.80;5.18;;;;;;;18.49;19.31;102748.47;16114367;19;130886;-60
2024/01/10 17:03:45;;;;;;;9.82;5.88;;;;;;;18.33;19.22;102750.47;16114127;19;129649;-60
2024/01/10 17:09:09;;;;;;;8.45;5.22;;;;;;;18.20;19.43;102750.34;16117729;19;129858;-60
2024/01/10 17:14:31;;;;;;;10.30;5.28;;;;;;;18.26;19.45;102755.09;16111020;19;130516;-60
2024/01/10 17:19:54;;;;;;;11.27;5.40;;;;;;;18.48;19.38;102768.94;16109777;19;130150;-58
2024/01/10 17:25:16;;;;;;;12.07;5.78;;;;;;;18.79;19.50;102771.31;16112445;19;130739;-60
2024/01/10 17:30:38;;;;;;;7.88;5.55;;;;;;;19.11;19.17;102779.19;16113838;19;130778;-60
2024/01/10 17:36:00;;;;;;;9.55;5.13;;;;;;;19.35;19.15;102773.16;16114473;19;129715;-60
2024/01/10 17:41:24;;;;;;;10.77;6.05;;;;;;;19.69;18.78;102776.94;16113204;19;132041;-60
2024/01/10 17:46:47;;;;;;;10.80;5.97;;;;;;;19.83;18.94;102780.63;16114261;19;130437;-60
2024/01/10 17:52:09;;;;;;;10.93;6.57;;;;;;;19.83;18.82;102796.41;16110948;19;129614;-60
2024/01/10 17:57:31;;;;;;;15.18;6.40;;;;;;;19.77;19.06;102800.03;16111413;19;130831;-60
2024/01/10 18:02:53;;;;;;;14.52;8.13;;;;;;;19.67;19.20;102812.41;16113364;19;130137;-60
2024/01/10 18:08:15;;;;;;;17.08;9.80;;;;;;;19.64;19.13;102823.91;16115788;19;129746;-60
2024/01/10 18:13:37;;;;;;;17.52;11.55;;;;;;;19.73;19.29;102821.81;16111575;19;135748;-60
2024/01/10 18:19:00;;;;;;;18.10;11.98;;;;;;;19.93;19.87;102821.91;16110032;19;130223;-60
2024/01/10 18:24:22;;;;;;;16.00;11.35;;;;;;;20.13;19.55;102821.94;16105970;19;129824;-60
2024/01/10 18:29:44;;;;;;;19.98;11.07;;;;;;;20.32;19.55;102824.13;16105407;19;129459;-60
2024/01/10 18:35:06;;;;;;;18.08;11.30;;;;;;;20.40;20.12;102838.69;16107747;19;129036;-60
2024/01/10 18:40:28;;;;;;;18.63;10.43;;;;;;;20.46;20.08;102842.53;16107856;19;130376;-60
2024/01/10 18:45:50;;;;;;;16.80;10.48;;;;;;;20.45;19.84;102846.38;16109776;19;130109;-60
2024/01/10 18:51:15;;;;;;;16.60;10.50;;;;;;;20.42;20.03;102847.66;16106052;19;133108;-61
2024/01/10 18:56:39;;;;;;;16.35;9.65;;;;;;;20.37;20.54;102854.94;16105482;19;136318;-60
2024/01/10 19:02:00;;;;;;;14.52;9.77;;;;;;;20.29;20.80;102854.06;16106390;19;129827;-60
2024/01/10 19:07:23;;;;;;;14.20;9.20;;;;;;;20.20;20.70;102872.00;16108091;19;131385;-61
2024/01/10 19:12:45;;;;;;;14.93;8.95;;;;;;;20.11;20.71;102876.03;16108029;19;129913;-60
2024/01/10 19:18:07;;;;;;;16.67;9.45;;;;;;;20.04;20.91;102883.50;16107510;19;130743;-59
2024/01/10 19:23:29;;;;;;;19.23;9.50;;;;;;;19.96;21.26;102885.34;16105173;19;129691;-59
2024/01/10 19:28:51;;;;;;;17.88;8.73;;;;;;;19.94;21.41;102889.41;16105261;19;130263;-60
2024/01/10 19:34:14;;;;;;;12.45;8.15;;;;;;;20.00;21.43;102883.03;16109056;19;130723;-59
2024/01/10 19:39:36;;;;;;;26.98;8.35;;;;;;;20.14;21.51;102889.50;16119662;19;131194;-60
2024/01/10 19:44:58;;;;;;;21.95;7.47;;;;;;;20.26;22.14;102898.97;16119866;19;132413;-61
2024/01/10 19:50:22;;;;;;;14.80;6.93;;;;;;;20.43;22.23;102899.41;16122598;19;129971;-60
2024/01/10 19:55:44;;;;;;;16.90;6.90;;;;;;;20.59;22.23;102900.94;16120126;19;130019;-61
2024/01/10 20:01:06;;;;;;;9.98;5.65;;;;;;;20.67;22.27;102904.59;16116601;19;130310;-60
2024/01/10 20:06:27;;;;;;;11.02;6.68;;;;;;;20.67;22.82;102913.78;16122896;19;131078;-61
2024/01/10 20:11:50;;;;;;;9.85;5.50;;;;;;;20.67;22.98;102921.28;16121036;19;129682;-60
2024/01/10 20:17:12;;;;;;;11.18;5.80;;;;;;;20.64;22.83;102930.06;16117975;19;129281;-61
2024/01/10 20:22:35;;;;;;;9.60;5.43;;;;;;;20.62;22.89;102932.19;16113402;19;129932;-61
2024/01/10 20:28:00;;;;;;;12.82;5.70;;;;;;;20.58;23.08;102924.25;16118288;19;130725;-62
2024/01/10 20:33:22;;;;;;;10.70;5.13;;;;;;;20.54;23.20;102934.09;16118290;19;129653;-61
2024/01/10 20:38:44;;;;;;;10.32;5.50;;;;;;;20.54;23.26;102927.66;16115432;19;130746;-61
2024/01/10 20:44:07;;;;;;;10.82;4.88;;;;;;;20.55;23.08;102935.81;16114568;19;129761;-60
2024/01/10 20:49:29;;;;;;;12.85;5.55;;;;;;;20.58;23.38;102940.94;16115240;19;130592;-61
2024/01/10 20:54:52;;;;;;;9.13;4.57;;;;;;;20.62;23.54;102930.25;16120639;19;130647;-61
2024/01/10 21:00:14;;;;;;;9.88;4.03;;;;;;;20.68;23.17;102934.97;16119488;19;129786;-60
2024/01/10 21:05:36;;;;;;;7.20;4.13;;;;;;;20.75;23.12;102937.75;16118865;19;129809;-61
2024/01/10 21:10:59;;;;;;;9.25;4.28;;;;;;;20.79;23.21;102944.66;16116298;19;130297;-60
2024/01/10 21:16:21;;;;;;;7.40;4.25;;;;;;;20.73;23.50;102943.56;16115460;19;129227;-59
2024/01/10 21:21:44;;;;;;;10.57;4.97;;;;;;;20.59;23.00;102945.44;16113276;19;131657;-62
2024/01/10 21:27:06;;;;;;;9.85;4.93;;;;;;;20.43;22.90;102943.06;16115884;19;131159;-58
2024/01/10 21:32:28;;;;;;;10.65;5.43;;;;;;;20.27;23.52;102934.03;16117488;19;130171;-61
2024/01/10 21:37:50;;;;;;;10.52;5.57;;;;;;;20.11;23.57;102940.81;16113648;19;130826;-63
2024/01/10 21:43:12;;;;;;;10.30;5.00;;;;;;;19.98;23.63;102947.13;16119342;19;130877;-63
2024/01/10 21:48:34;;;;;;;10.95;5.18;;;;;;;19.83;23.37;102955.59;16115349;19;131550;-64
2024/01/10 21:53:56;;;;;;;12.63;5.95;;;;;;;19.65;23.47;102949.72;16117469;19;131154;-63
2024/01/10 21:59:18;;;;;;;10.52;4.88;;;;;;;19.48;23.60;102974.16;16113294;19;130513;-62
2024/01/10 22:04:40;;;;;;;9.43;5.10;;;;;;;19.35;23.93;102966.59;16115980;19;130322;-63
2024/01/10 22:10:02;;;;;;;6.88;4.55;;;;;;;19.21;23.90;102985.91;16118075;19;130314;-65
2024/01/10 22:15:26;;;;;;;8.48;5.18;;;;;;;19.11;23.59;102992.81;16113946;19;131262;-65
2024/01/10 22:20:47;;;;;;;11.38;5.20;;;;;;;18.98;23.57;102991.63;16111388;19;130239;-66
2024/01/10 22:26:10;;;;;;;9.32;5.30;;;;;;;18.86;23.52;102990.44;16113762;19;129611;-66
2024/01/10 22:31:32;;;;;;;8.63;5.38;;;;;;;18.72;24.00;102995.00;16112088;19;131282;-62
2024/01/10 22:36:54;;;;;;;10.77;5.65;;;;;;;18.60;23.66;103000.19;16112074;19;130991;-63
2024/01/10 22:42:16;;;;;;;10.57;6.05;;;;;;;18.47;23.50;103009.22;16114293;19;129633;-62
2024/01/10 22:47:38;;;;;;;11.77;5.97;;;;;;;18.36;23.45;103021.63;16114210;19;130081;-63
2024/01/10 22:53:00;;;;;;;12.35;6.47;;;;;;;18.25;23.86;103011.91;16108146;19;132866;-63
2024/01/10 22:58:22;;;;;;;10.32;6.60;;;;;;;18.17;23.63;103013.91;16112936;19;130433;-64
2024/01/10 23:03:50;;;;;;;12.60;6.95;;;;;;;18.08;23.82;103016.78;16110039;19;131355;-63
2024/01/10 23:09:14;;;;;;;12.85;6.75;;;;;;;18.01;23.53;103013.06;16111308;19;130405;-62
2024/01/10 23:14:36;;;;;;;11.70;6.43;;;;;;;17.90;23.29;103021.84;16110896;19;129591;-63
2024/01/10 23:19:59;;;;;;;10.43;6.70;;;;;;;17.82;23.58;103029.19;16111100;19;129480;-62
2024/01/10 23:25:21;;;;;;;9.55;5.85;;;;;;;17.76;23.80;103023.56;16108687;19;129540;-64
2024/01/10 23:30:43;;;;;;;9.00;5.55;;;;;;;17.72;23.52;103019.44;16107018;19;130540;-62
2024/01/10 23:36:06;;;;;;;10.70;6.38;;;;;;;17.65;23.46;103022.97;16104166;19;130393;-62
2024/01/10 23:41:28;;;;;;;10.95;6.13;;;;;;;17.59;23.57;103025.63;16111175;19;131392;-62
2024/01/10 23:46:50;;;;;;;9.05;5.35;;;;;;;17.52;23.46;103029.09;16109905;19;129649;-62
2024/01/10 23:52:12;;;;;;;9.77;6.13;;;;;;;17.47;23.46;103022.41;16109265;19;129668;-63
2024/01/10 23:57:35;;;;;;;8.80;5.88;;;;;;;17.41;23.80;103021.25;16105496;19;130296;-62
